createdAt,value
2018-06-30T00:01:27.412Z,90.90
2018-06-30T00:03:56.681Z,90.90
2018-06-30T00:06:27.893Z,91.00
2018-06-30T00:08:57.052Z,91.00
2018-06-30T00:11:25.656Z,91.20
2018-06-30T00:13:54.710Z,91.40
2018-06-30T00:16:23.061Z,91.50
2018-06-30T00:18:51.400Z,91.50
2018-06-30T00:21:19.712Z,91.70
2018-06-30T00:23:48.049Z,91.90
2018-06-30T00:26:16.402Z,91.80
2018-06-30T00:28:44.749Z,91.70
2018-06-30T00:31:13.189Z,91.70
2018-06-30T00:33:41.528Z,91.70
2018-06-30T00:36:09.846Z,91.60
2018-06-30T00:38:38.193Z,91.70
2018-06-30T00:41:06.522Z,91.80
2018-06-30T00:43:34.860Z,91.90
2018-06-30T00:46:03.162Z,91.90
2018-06-30T00:48:31.556Z,91.80
2018-06-30T00:50:59.869Z,91.80
2018-06-30T00:53:28.192Z,92.00
2018-06-30T00:55:56.489Z,92.00
2018-06-30T00:58:24.853Z,92.10
2018-06-30T01:00:53.192Z,92.40
2018-06-30T01:03:21.545Z,92.50
2018-06-30T01:05:49.896Z,92.60
2018-06-30T01:08:18.249Z,92.60
2018-06-30T01:10:46.562Z,92.60
2018-06-30T01:13:14.907Z,92.90
2018-06-30T01:15:43.256Z,93.10
2018-06-30T01:20:39.656Z,94.10
2018-06-30T01:23:08.119Z,94.40
2018-06-30T01:25:36.452Z,94.30
2018-06-30T01:28:05.029Z,94.50
2018-06-30T01:30:33.343Z,94.50
2018-06-30T01:33:01.698Z,94.50
2018-06-30T01:35:30.033Z,94.50
2018-06-30T01:37:58.385Z,94.50
2018-06-30T01:40:26.724Z,94.40
2018-06-30T01:42:55.077Z,94.60
2018-06-30T01:45:23.396Z,94.80
2018-06-30T01:47:51.809Z,94.80
2018-06-30T01:50:20.128Z,94.70
2018-06-30T01:52:48.481Z,94.60
2018-06-30T01:55:16.801Z,94.50
2018-06-30T02:00:13.303Z,94.40
2018-06-30T02:02:41.624Z,94.60
2018-06-30T02:05:09.932Z,94.50
2018-06-30T02:07:38.257Z,94.60
2018-06-30T02:10:06.573Z,94.70
2018-06-30T02:15:02.957Z,94.70
2018-06-30T02:17:31.268Z,94.70
2018-06-30T02:19:59.601Z,94.90
2018-06-30T02:22:27.920Z,95.00
2018-06-30T02:24:56.253Z,94.90
2018-06-30T02:29:52.677Z,94.90
2018-06-30T02:32:21.044Z,94.90
2018-06-30T02:34:49.393Z,95.00
2018-06-30T02:37:17.698Z,95.10
2018-06-30T02:39:46.037Z,95.10
2018-06-30T02:42:14.417Z,95.20
2018-06-30T02:44:42.720Z,95.10
2018-06-30T02:47:11.045Z,95.10
2018-06-30T02:49:39.393Z,95.10
2018-06-30T02:52:07.738Z,95.10
2018-06-30T02:54:36.141Z,95.20
2018-06-30T02:57:04.477Z,95.20
2018-06-30T03:02:00.840Z,95.40
2018-06-30T03:04:29.165Z,95.50
2018-06-30T03:06:57.489Z,95.40
2018-06-30T03:09:25.825Z,95.50
2018-06-30T03:11:54.132Z,95.60
2018-06-30T03:14:22.463Z,95.60
2018-06-30T03:16:50.773Z,95.90
2018-06-30T03:19:19.103Z,96.00
2018-06-30T03:21:47.516Z,96.00
2018-06-30T03:24:15.844Z,95.90
2018-06-30T03:26:44.160Z,95.80
2018-06-30T03:29:12.473Z,95.90
2018-06-30T03:31:40.847Z,95.90
2018-06-30T03:34:09.113Z,96.30
2018-06-30T03:36:37.593Z,96.00
2018-06-30T03:39:08.030Z,96.10
2018-06-30T03:41:36.337Z,96.20
2018-06-30T03:44:04.992Z,96.30
2018-06-30T03:46:33.361Z,96.40
2018-06-30T03:49:01.694Z,97.00
2018-06-30T03:51:29.994Z,97.00
2018-06-30T03:53:58.312Z,96.80
2018-06-30T03:56:26.629Z,96.70
2018-06-30T03:58:55.037Z,96.60
2018-06-30T04:01:23.352Z,96.60
2018-06-30T04:03:51.721Z,96.60
2018-06-30T04:06:20.058Z,96.50
2018-06-30T04:08:48.389Z,96.50
2018-06-30T04:11:16.695Z,96.40
2018-06-30T04:13:45.029Z,96.50
2018-06-30T04:16:13.354Z,96.70
2018-06-30T04:18:41.685Z,96.70
2018-06-30T04:21:10.006Z,96.70
2018-06-30T04:23:38.309Z,97.00
2018-06-30T04:26:06.653Z,96.60
2018-06-30T04:28:34.972Z,96.60
2018-06-30T04:31:03.353Z,96.40
2018-06-30T04:33:31.661Z,96.30
2018-06-30T04:35:59.985Z,96.10
2018-06-30T04:38:28.286Z,96.00
2018-06-30T04:40:56.615Z,95.80
2018-06-30T04:43:24.916Z,95.80
2018-06-30T04:45:53.237Z,95.50
2018-06-30T04:48:21.553Z,95.30
2018-06-30T04:50:49.885Z,95.10
2018-06-30T04:53:18.190Z,95.00
2018-06-30T04:55:46.517Z,94.70
2018-06-30T04:58:14.829Z,94.60
2018-06-30T05:00:43.204Z,94.30
2018-06-30T05:03:11.512Z,94.10
2018-06-30T05:05:39.833Z,93.90
2018-06-30T05:08:08.153Z,93.70
2018-06-30T05:10:36.489Z,93.50
2018-06-30T05:13:05.187Z,93.20
2018-06-30T05:15:33.536Z,93.20
2018-06-30T05:18:01.863Z,92.70
2018-06-30T05:20:30.196Z,92.60
2018-06-30T05:22:58.520Z,92.50
2018-06-30T05:25:26.845Z,92.30
2018-06-30T05:27:55.173Z,92.10
2018-06-30T05:30:23.502Z,91.30
2018-06-30T05:32:51.804Z,91.10
2018-06-30T05:35:20.176Z,90.40
2018-06-30T05:37:48.480Z,89.00
2018-06-30T05:40:16.833Z,87.30
2018-06-30T05:42:45.140Z,85.60
2018-06-30T05:45:13.489Z,85.00
2018-06-30T05:50:09.884Z,85.60
2018-06-30T05:52:38.198Z,85.30
2018-06-30T05:55:06.582Z,83.70
2018-06-30T05:57:34.936Z,83.00
2018-06-30T06:00:03.293Z,83.00
2018-06-30T06:02:31.612Z,82.30
2018-06-30T06:04:59.941Z,82.60
2018-06-30T06:07:28.298Z,82.20
2018-06-30T06:09:56.623Z,80.90
2018-06-30T06:12:24.972Z,79.10
2018-06-30T06:14:53.484Z,79.10
2018-06-30T06:17:21.816Z,79.00
2018-06-30T06:22:18.215Z,79.10
2018-06-30T06:24:46.521Z,77.00
2018-06-30T06:27:14.873Z,76.80
2018-06-30T06:29:43.208Z,77.20
2018-06-30T06:32:11.561Z,76.60
2018-06-30T06:34:39.877Z,76.60
2018-06-30T06:37:08.221Z,76.90
2018-06-30T06:39:36.572Z,76.00
2018-06-30T06:42:04.913Z,77.60
2018-06-30T06:44:33.225Z,77.00
2018-06-30T06:47:01.572Z,77.20
2018-06-30T06:49:29.916Z,76.20
2018-06-30T06:51:58.253Z,74.50
2018-06-30T06:54:26.562Z,73.60
2018-06-30T06:56:54.922Z,72.50
2018-06-30T06:59:23.240Z,72.60
2018-06-30T07:01:51.586Z,72.70
2018-06-30T07:04:19.897Z,73.30
2018-06-30T07:06:48.225Z,73.30
2018-06-30T07:09:16.537Z,73.00
2018-06-30T07:11:44.911Z,71.80
2018-06-30T07:14:13.216Z,70.40
2018-06-30T07:16:41.550Z,70.90
2018-06-30T07:19:09.862Z,70.30
2018-06-30T07:21:38.213Z,69.00
2018-06-30T07:24:06.552Z,69.80
2018-06-30T07:26:34.901Z,69.10
2018-06-30T07:29:03.250Z,67.20
2018-06-30T07:31:31.573Z,66.70
2018-06-30T07:33:59.876Z,66.50
2018-06-30T07:36:28.212Z,67.70
2018-06-30T07:38:56.537Z,69.50
2018-06-30T07:41:24.909Z,69.10
2018-06-30T07:43:53.369Z,68.80
2018-06-30T07:46:21.704Z,68.00
2018-06-30T07:48:50.008Z,67.20
2018-06-30T07:51:18.341Z,65.80
2018-06-30T07:53:46.661Z,66.50
2018-06-30T07:56:15.094Z,67.00
2018-06-30T07:58:43.349Z,67.50
2018-06-30T08:01:11.696Z,68.60
2018-06-30T08:03:40.006Z,68.50
2018-06-30T08:06:08.353Z,65.60
2018-06-30T08:08:36.680Z,65.80
2018-06-30T08:11:05.008Z,66.50
2018-06-30T08:13:33.352Z,66.00
2018-06-30T08:16:01.680Z,66.30
2018-06-30T08:18:30.024Z,64.20
2018-06-30T08:20:58.337Z,65.80
2018-06-30T08:23:26.677Z,66.40
2018-06-30T08:25:54.989Z,64.70
2018-06-30T08:28:23.353Z,66.40
2018-06-30T08:30:51.680Z,65.00
2018-06-30T08:33:20.009Z,65.60
2018-06-30T08:35:48.326Z,63.60
2018-06-30T08:40:44.677Z,65.10
2018-06-30T08:45:41.033Z,63.10
2018-06-30T08:48:09.357Z,61.90
2018-06-30T08:50:37.676Z,62.00
2018-06-30T08:53:06.044Z,60.30
2018-06-30T08:55:34.377Z,60.30
2018-06-30T08:58:02.745Z,60.10
2018-06-30T09:00:31.132Z,60.60
2018-06-30T09:02:59.466Z,60.60
2018-06-30T09:05:27.825Z,59.90
2018-06-30T09:07:56.194Z,57.80
2018-06-30T09:10:24.518Z,58.90
2018-06-30T09:12:52.857Z,58.60
2018-06-30T09:15:21.176Z,58.90
2018-06-30T09:20:17.634Z,58.50
2018-06-30T09:22:45.953Z,58.20
2018-06-30T09:25:14.257Z,58.60
2018-06-30T09:27:42.617Z,59.00
2018-06-30T09:30:11.201Z,58.30
2018-06-30T09:32:39.537Z,58.30
2018-06-30T09:35:07.837Z,58.40
2018-06-30T09:37:36.477Z,57.90
2018-06-30T09:40:05.069Z,58.10
2018-06-30T09:42:33.437Z,56.80
2018-06-30T09:45:01.753Z,57.20
2018-06-30T09:47:30.078Z,57.70
2018-06-30T09:49:58.392Z,59.30
2018-06-30T09:52:26.723Z,57.80
2018-06-30T09:54:55.041Z,57.10
2018-06-30T09:57:23.380Z,56.90
2018-06-30T09:59:51.700Z,56.80
2018-06-30T10:02:20.033Z,57.80
2018-06-30T10:04:48.357Z,57.20
2018-06-30T10:07:16.701Z,56.50
2018-06-30T10:09:45.023Z,55.70
2018-06-30T10:12:13.340Z,56.00
2018-06-30T10:14:41.665Z,56.50
2018-06-30T10:19:38.077Z,53.60
2018-06-30T10:22:06.423Z,53.60
2018-06-30T10:24:34.765Z,54.40
2018-06-30T10:27:03.073Z,53.10
2018-06-30T10:29:31.396Z,53.20
2018-06-30T10:31:59.701Z,52.60
2018-06-30T10:34:28.041Z,52.40
2018-06-30T10:36:56.366Z,51.80
2018-06-30T10:39:24.698Z,50.90
2018-06-30T10:41:53.006Z,50.40
2018-06-30T10:44:21.323Z,51.20
2018-06-30T10:46:49.637Z,50.60
2018-06-30T10:49:17.968Z,49.10
2018-06-30T10:54:14.332Z,50.10
2018-06-30T10:56:42.724Z,48.90
2018-06-30T10:59:11.062Z,49.40
2018-06-30T11:01:39.369Z,49.90
2018-06-30T11:04:07.748Z,49.10
2018-06-30T11:06:36.086Z,49.30
2018-06-30T11:09:07.968Z,49.70
2018-06-30T11:11:36.409Z,47.90
2018-06-30T11:14:04.801Z,47.90
2018-06-30T11:16:33.124Z,47.30
2018-06-30T11:19:01.489Z,46.10
2018-06-30T11:21:29.800Z,47.40
2018-06-30T11:23:58.301Z,46.10
2018-06-30T11:26:27.010Z,45.80
2018-06-30T11:28:55.366Z,45.10
2018-06-30T11:31:23.664Z,44.80
2018-06-30T11:33:51.994Z,44.50
2018-06-30T11:36:20.380Z,46.00
2018-06-30T11:38:48.707Z,44.30
2018-06-30T11:41:17.012Z,45.00
2018-06-30T11:43:45.576Z,43.30
2018-06-30T11:46:14.052Z,42.10
2018-06-30T11:48:42.384Z,43.30
2018-06-30T11:51:10.712Z,43.20
2018-06-30T11:53:39.025Z,43.00
2018-06-30T11:56:07.322Z,42.00
2018-06-30T11:58:35.656Z,43.20
2018-06-30T12:01:03.980Z,42.70
2018-06-30T12:03:32.367Z,41.60
2018-06-30T12:06:00.629Z,42.10
2018-06-30T12:08:28.946Z,41.80
2018-06-30T12:10:57.246Z,41.30
2018-06-30T12:13:25.572Z,41.50
2018-06-30T12:15:53.934Z,42.20
2018-06-30T12:18:22.233Z,39.80
2018-06-30T12:20:50.553Z,39.90
2018-06-30T12:23:18.864Z,40.60
2018-06-30T12:25:47.193Z,40.30
2018-06-30T12:28:15.504Z,40.50
2018-06-30T12:30:43.844Z,39.90
2018-06-30T12:33:12.145Z,39.60
2018-06-30T12:35:40.468Z,41.20
2018-06-30T12:40:36.824Z,42.40
2018-06-30T12:43:05.188Z,40.10
2018-06-30T12:45:33.509Z,39.60
2018-06-30T12:48:01.817Z,39.70
2018-06-30T12:50:30.173Z,38.70
2018-06-30T12:52:58.670Z,38.80
2018-06-30T12:55:26.990Z,39.50
2018-06-30T12:57:55.300Z,39.00
2018-06-30T13:00:23.633Z,38.20
2018-06-30T13:02:51.931Z,38.50
2018-06-30T13:05:20.253Z,39.00
2018-06-30T13:07:48.565Z,39.00
2018-06-30T13:10:16.912Z,39.50
2018-06-30T13:12:45.214Z,39.90
2018-06-30T13:15:13.541Z,39.30
2018-06-30T13:17:41.915Z,38.80
2018-06-30T13:20:10.228Z,38.40
2018-06-30T13:22:38.554Z,40.00
2018-06-30T13:27:34.939Z,38.30
2018-06-30T13:30:03.304Z,38.50
2018-06-30T13:32:31.600Z,38.50
2018-06-30T13:34:59.930Z,37.50
2018-06-30T13:37:28.272Z,38.50
2018-06-30T13:39:56.593Z,38.60
2018-06-30T13:42:24.892Z,38.00
2018-06-30T13:44:53.218Z,36.80
2018-06-30T13:47:21.525Z,36.70
2018-06-30T13:49:49.857Z,37.60
2018-06-30T13:52:18.357Z,36.90
2018-06-30T13:54:46.712Z,36.70
2018-06-30T13:57:15.034Z,35.60
2018-06-30T13:59:43.369Z,35.00
2018-06-30T14:02:11.674Z,35.80
2018-06-30T14:04:39.997Z,35.80
2018-06-30T14:07:08.306Z,35.00
2018-06-30T14:09:36.657Z,35.40
2018-06-30T14:12:05.002Z,36.30
2018-06-30T14:14:33.319Z,36.60
2018-06-30T14:17:01.625Z,35.60
2018-06-30T14:19:29.944Z,35.60
2018-06-30T14:21:58.260Z,35.90
2018-06-30T14:24:26.580Z,35.60
2018-06-30T14:26:54.937Z,34.50
2018-06-30T14:29:23.237Z,35.50
2018-06-30T14:31:51.616Z,35.70
2018-06-30T14:34:19.924Z,35.80
2018-06-30T14:36:48.265Z,36.10
2018-06-30T14:39:16.569Z,38.50
2018-06-30T14:41:44.894Z,38.90
2018-06-30T14:44:13.189Z,38.50
2018-06-30T14:46:41.513Z,38.90
2018-06-30T14:49:09.809Z,39.10
2018-06-30T14:51:38.148Z,38.10
2018-06-30T14:54:06.478Z,38.50
2018-06-30T14:56:34.813Z,37.80
2018-06-30T14:59:03.126Z,38.10
2018-06-30T15:03:59.471Z,37.50
2018-06-30T15:06:27.797Z,37.20
2018-06-30T15:08:56.104Z,39.10
2018-06-30T15:11:24.424Z,38.80
2018-06-30T15:13:52.777Z,39.10
2018-06-30T15:16:21.114Z,38.90
2018-06-30T15:18:49.425Z,38.20
2018-06-30T15:21:17.748Z,40.10
2018-06-30T15:23:46.057Z,39.30
2018-06-30T15:26:14.410Z,40.10
2018-06-30T15:28:42.741Z,40.40
2018-06-30T15:31:11.073Z,38.70
2018-06-30T15:33:39.373Z,37.20
2018-06-30T15:36:07.895Z,36.50
2018-06-30T15:38:36.076Z,36.60
2018-06-30T15:41:04.428Z,37.40
2018-06-30T15:43:32.755Z,38.60
2018-06-30T15:46:01.117Z,39.20
2018-06-30T15:48:29.456Z,39.50
2018-06-30T15:53:31.603Z,40.60
2018-06-30T15:55:59.934Z,39.70
2018-06-30T15:58:28.236Z,39.30
2018-06-30T16:03:24.629Z,40.20
2018-06-30T16:05:52.955Z,42.30
2018-06-30T16:08:21.282Z,41.60
2018-06-30T16:10:49.601Z,41.70
2018-06-30T16:13:17.909Z,42.00
2018-06-30T16:15:46.281Z,42.50
2018-06-30T16:18:14.609Z,42.40
2018-06-30T16:20:42.945Z,42.40
2018-06-30T16:23:11.233Z,43.10
2018-06-30T16:25:39.585Z,42.00
2018-06-30T16:28:08.340Z,42.60
2018-06-30T16:30:36.667Z,43.70
2018-06-30T16:35:33.017Z,43.40
2018-06-30T16:38:01.674Z,43.50
2018-06-30T16:40:30.013Z,43.10
2018-06-30T16:42:58.336Z,42.90
2018-06-30T16:45:26.629Z,43.30
2018-06-30T16:47:54.964Z,43.80
2018-06-30T16:50:23.261Z,42.90
2018-06-30T16:52:51.581Z,42.90
2018-06-30T16:55:19.890Z,42.70
2018-06-30T16:57:48.232Z,42.00
2018-06-30T17:00:16.569Z,42.30
2018-06-30T17:02:44.893Z,42.60
2018-06-30T17:05:13.204Z,42.20
2018-06-30T17:07:41.525Z,42.10
2018-06-30T17:10:09.844Z,42.00
2018-06-30T17:12:38.188Z,41.90
2018-06-30T17:15:06.549Z,42.00
2018-06-30T17:17:34.901Z,42.50
2018-06-30T17:20:03.275Z,41.70
2018-06-30T17:22:31.584Z,41.50
2018-06-30T17:24:59.888Z,41.10
2018-06-30T17:27:28.357Z,41.70
2018-06-30T17:29:56.668Z,41.80
2018-06-30T17:32:25.008Z,41.30
2018-06-30T17:34:53.313Z,41.30
2018-06-30T17:37:21.643Z,41.50
2018-06-30T17:39:49.949Z,41.70
2018-06-30T17:42:18.282Z,42.10
2018-06-30T17:44:46.589Z,42.20
2018-06-30T17:47:14.921Z,41.60
2018-06-30T17:49:43.210Z,41.80
2018-06-30T17:52:11.574Z,41.30
2018-06-30T17:54:39.872Z,41.40
2018-06-30T17:57:08.225Z,41.50
2018-06-30T17:59:36.553Z,41.40
2018-06-30T18:02:04.937Z,41.80
2018-06-30T18:04:33.229Z,41.70
2018-06-30T18:07:01.558Z,41.90
2018-06-30T18:09:29.877Z,41.60
2018-06-30T18:11:58.205Z,41.60
2018-06-30T18:14:26.513Z,41.50
2018-06-30T18:16:54.832Z,41.50
2018-06-30T18:19:23.189Z,41.10
2018-06-30T18:21:51.543Z,41.00
2018-06-30T18:24:19.855Z,41.20
2018-06-30T18:26:48.185Z,41.00
2018-06-30T18:29:16.497Z,41.00
2018-06-30T18:31:44.835Z,41.30
2018-06-30T18:34:13.152Z,41.50
2018-06-30T18:36:41.469Z,41.70
2018-06-30T18:39:10.836Z,42.70
2018-06-30T18:41:39.153Z,42.90
2018-06-30T18:46:36.124Z,42.50
2018-06-30T18:49:04.581Z,43.30
2018-06-30T18:51:32.918Z,42.80
2018-06-30T18:54:01.242Z,42.80
2018-06-30T18:56:29.566Z,43.40
2018-06-30T18:58:57.908Z,43.50
2018-06-30T19:01:26.228Z,43.60
2018-06-30T19:03:54.604Z,43.90
2018-06-30T19:08:50.965Z,44.40
2018-06-30T19:11:19.275Z,44.50
2018-06-30T19:13:47.629Z,44.50
2018-06-30T19:16:15.964Z,45.10
2018-06-30T19:21:12.341Z,45.10
2018-06-30T19:23:40.680Z,44.50
2018-06-30T19:26:09.532Z,44.60
2018-06-30T19:28:38.145Z,44.70
2018-06-30T19:31:07.308Z,43.80
2018-06-30T19:33:35.642Z,43.90
2018-06-30T19:36:04.006Z,43.50
2018-06-30T19:38:32.382Z,43.90
2018-06-30T19:41:00.952Z,43.50
2018-06-30T19:43:29.292Z,43.40
2018-06-30T19:45:57.619Z,43.30
2018-06-30T19:48:25.973Z,42.70
2018-06-30T19:50:54.277Z,43.00
2018-06-30T19:53:22.647Z,43.30
2018-06-30T19:55:50.953Z,43.50
2018-06-30T19:58:19.271Z,43.60
2018-06-30T20:00:47.577Z,43.90
2018-06-30T20:03:15.912Z,43.80
2018-06-30T20:05:44.257Z,43.50
2018-06-30T20:08:12.585Z,43.90
2018-06-30T20:10:40.905Z,43.60
2018-06-30T20:13:09.232Z,43.70
2018-06-30T20:15:37.558Z,43.50
2018-06-30T20:18:05.921Z,42.70
2018-06-30T20:20:34.241Z,42.90
2018-06-30T20:23:02.580Z,42.90
2018-06-30T20:25:30.919Z,42.60
2018-06-30T20:27:59.283Z,42.40
2018-06-30T20:30:27.584Z,42.40
2018-06-30T20:32:55.920Z,42.10
2018-06-30T20:35:24.229Z,42.00
2018-06-30T20:37:52.547Z,41.70
2018-06-30T20:40:20.864Z,40.90
2018-06-30T20:45:17.296Z,41.40
2018-06-30T20:47:45.645Z,40.20
2018-06-30T20:50:13.954Z,40.40
2018-06-30T20:52:42.265Z,40.30
2018-06-30T20:55:10.621Z,40.30
2018-06-30T20:57:38.932Z,40.50
2018-06-30T21:00:07.290Z,40.90
2018-06-30T21:02:35.642Z,40.60
2018-06-30T21:05:03.997Z,40.00
2018-06-30T21:07:32.337Z,39.50
2018-06-30T21:10:00.679Z,39.60
2018-06-30T21:12:29.011Z,39.40
2018-06-30T21:14:57.341Z,39.40
2018-06-30T21:17:25.708Z,39.50
2018-06-30T21:19:54.013Z,39.10
2018-06-30T21:22:22.327Z,39.20
2018-06-30T21:24:50.686Z,39.00
2018-06-30T21:29:47.060Z,39.30
2018-06-30T21:32:15.377Z,39.10
2018-06-30T21:34:43.696Z,39.20
2018-06-30T21:37:12.000Z,38.60
2018-06-30T21:39:40.333Z,38.50
2018-06-30T21:42:08.665Z,38.70
2018-06-30T21:44:36.996Z,38.20
2018-06-30T21:47:05.348Z,38.20
2018-06-30T21:49:33.668Z,37.70
2018-06-30T21:52:02.017Z,37.50
2018-06-30T21:54:30.366Z,37.70
2018-06-30T21:56:58.671Z,37.40
2018-06-30T21:59:27.010Z,37.10
2018-06-30T22:01:55.368Z,37.10
2018-06-30T22:04:23.700Z,36.80
2018-06-30T22:06:52.009Z,37.50
2018-06-30T22:09:20.340Z,38.20
2018-06-30T22:11:48.669Z,37.00
2018-06-30T22:14:16.985Z,37.10
2018-06-30T22:16:45.285Z,37.40
2018-06-30T22:19:13.612Z,36.60
2018-06-30T22:21:41.908Z,36.40
2018-06-30T22:24:10.241Z,36.80
2018-06-30T22:26:38.569Z,36.20
2018-06-30T22:29:06.919Z,37.20
2018-06-30T22:31:35.256Z,36.80
2018-06-30T22:34:03.588Z,37.10
2018-06-30T22:36:31.903Z,37.80
2018-06-30T22:39:00.223Z,37.20
2018-06-30T22:41:28.521Z,37.30
2018-06-30T22:43:56.945Z,37.20
2018-06-30T22:46:25.257Z,37.50
2018-06-30T22:48:53.608Z,37.70
2018-06-30T22:51:21.940Z,37.80
2018-06-30T22:56:18.316Z,37.70
2018-06-30T22:58:46.628Z,38.00
2018-06-30T23:01:14.990Z,38.20
2018-06-30T23:03:43.393Z,38.60
2018-06-30T23:06:11.729Z,38.90
2018-06-30T23:08:45.301Z,38.80
2018-06-30T23:11:13.733Z,39.30
2018-06-30T23:13:42.033Z,39.70
2018-06-30T23:16:10.460Z,40.10
2018-06-30T23:18:38.792Z,40.30
2018-06-30T23:21:07.117Z,40.90
2018-06-30T23:23:35.454Z,41.30
2018-06-30T23:26:03.789Z,41.30
2018-06-30T23:28:32.093Z,41.60
2018-06-30T23:31:00.413Z,41.80
2018-06-30T23:33:28.708Z,41.90
2018-06-30T23:38:25.076Z,42.90
2018-06-30T23:40:53.427Z,43.20
2018-06-30T23:43:21.725Z,43.60
2018-06-30T23:45:50.046Z,44.40
2018-06-30T23:48:18.348Z,44.00
2018-06-30T23:50:46.694Z,44.40
2018-06-30T23:53:14.996Z,44.20
2018-06-30T23:55:43.342Z,45.20
2018-06-30T23:58:11.656Z,44.60
